createdAt,value
2022-08-27T05:34:27.141Z,17.42
2022-08-27T05:39:30.009Z,17.27
2022-08-27T05:44:41.406Z,17.60
2022-08-27T05:49:45.548Z,19.05
2022-08-27T05:54:48.126Z,16.70
2022-08-27T06:00:08.969Z,18.33
2022-08-27T06:05:18.225Z,21.17
2022-08-27T06:10:20.733Z,20.42
2022-08-27T06:15:23.101Z,18.75
2022-08-27T06:20:25.488Z,17.58
2022-08-27T06:25:27.811Z,18.35
2022-08-27T06:30:30.164Z,18.45
2022-08-27T06:35:35.069Z,17.75
2022-08-27T06:40:42.031Z,17.02
2022-08-27T06:45:44.436Z,18.05
2022-08-27T06:50:46.986Z,18.80
2022-08-27T06:55:49.719Z,17.98
2022-08-27T07:00:52.228Z,20.10
2022-08-27T07:05:54.542Z,20.85
2022-08-27T07:10:57.672Z,18.83
2022-08-27T07:16:08.354Z,20.17
2022-08-27T07:21:10.998Z,17.77
2022-08-27T07:26:15.293Z,18.35
2022-08-27T07:31:20.343Z,19.08
2022-08-27T07:36:22.971Z,17.63
2022-08-27T07:41:25.638Z,16.48
2022-08-27T07:46:37.946Z,17.88
2022-08-27T07:51:41.900Z,17.25
2022-08-27T07:56:55.033Z,16.15
2022-08-27T08:01:58.263Z,15.82
2022-08-27T08:07:00.585Z,16.25
2022-08-27T08:12:03.582Z,15.60
2022-08-27T08:17:10.083Z,15.95
2022-08-27T08:22:12.878Z,14.07
2022-08-27T08:27:16.023Z,14.43
2022-08-27T08:32:18.421Z,13.77
2022-08-27T08:37:20.892Z,12.73
2022-08-27T08:42:29.121Z,13.00
2022-08-27T08:47:50.553Z,12.48
2022-08-27T08:52:59.378Z,12.80
2022-08-27T08:58:16.735Z,12.55
2022-08-27T09:03:19.132Z,12.90
2022-08-27T09:08:40.519Z,11.85
2022-08-27T09:13:51.601Z,13.27
2022-08-27T09:18:54.909Z,13.45
2022-08-27T09:24:08.451Z,13.00
2022-08-27T09:29:20.302Z,12.43
2022-08-27T09:34:24.286Z,12.48
2022-08-27T09:39:36.174Z,11.55
2022-08-27T09:44:52.881Z,12.32
2022-08-27T09:50:06.842Z,11.18
2022-08-27T09:55:10.169Z,11.45
2022-08-27T10:00:17.990Z,9.40
2022-08-27T10:05:32.324Z,9.77
2022-08-27T10:10:59.800Z,34.70
2022-08-27T10:16:40.291Z,17.20
2022-08-27T10:22:01.599Z,12.45
2022-08-27T10:27:17.556Z,12.38
2022-08-27T10:32:57.661Z,12.88
2022-08-27T10:38:15.374Z,12.68
2022-08-27T10:43:17.953Z,12.32
2022-08-27T10:48:34.419Z,12.25
2022-08-27T10:53:50.304Z,11.50
2022-08-27T10:59:19.198Z,10.95
2022-08-27T11:04:25.748Z,12.27
2022-08-27T11:09:46.128Z,11.25
2022-08-27T11:14:54.406Z,11.77
2022-08-27T11:20:04.545Z,11.30
2022-08-27T11:25:12.948Z,10.52
2022-08-27T11:30:29.493Z,10.38
2022-08-27T11:35:55.246Z,10.63
2022-08-27T11:41:10.389Z,10.90
2022-08-27T11:46:25.763Z,10.63
2022-08-27T11:51:39.819Z,11.07
2022-08-27T11:56:43.436Z,11.10
2022-08-27T12:01:45.786Z,11.15
2022-08-27T12:07:00.098Z,11.23
2022-08-27T12:12:21.870Z,10.77
2022-08-27T12:17:49.617Z,11.68
2022-08-27T12:23:28.802Z,12.07
2022-08-27T12:28:31.181Z,11.55
2022-08-27T12:33:43.473Z,9.57
2022-08-27T12:38:50.531Z,10.07
2022-08-27T12:44:09.804Z,9.77
2022-08-27T12:49:38.448Z,10.13
2022-08-27T12:54:55.582Z,10.90
2022-08-27T13:00:14.813Z,9.70
2022-08-27T13:05:22.596Z,9.30
2022-08-27T13:10:29.153Z,9.60
2022-08-27T13:15:34.165Z,9.95
2022-08-27T13:20:38.722Z,9.82
2022-08-27T13:25:41.307Z,9.25
2022-08-27T13:30:46.424Z,9.32
2022-08-27T13:35:49.013Z,9.25
2022-08-27T13:41:01.270Z,8.75
2022-08-27T13:46:12.017Z,9.02
2022-08-27T13:51:15.694Z,9.38
2022-08-27T13:56:31.751Z,9.98
2022-08-27T14:01:34.167Z,9.73
2022-08-27T14:06:41.338Z,9.05
2022-08-27T14:11:45.406Z,9.50
2022-08-27T14:16:57.639Z,9.55
2022-08-27T14:22:00.612Z,10.95
2022-08-27T14:27:08.789Z,9.23
2022-08-27T14:32:11.189Z,9.35
2022-08-27T14:37:14.744Z,8.82
2022-08-27T14:42:17.695Z,9.43
2022-08-27T14:47:20.235Z,10.05
2022-08-27T14:52:23.015Z,9.70
2022-08-27T14:57:25.403Z,9.90
2022-08-27T15:02:28.617Z,10.20
2022-08-27T15:07:31.186Z,10.35
2022-08-27T15:12:33.653Z,10.93
2022-08-27T15:17:36.505Z,9.75
2022-08-27T15:22:44.181Z,10.70
2022-08-27T15:27:46.746Z,10.68
2022-08-27T15:32:49.383Z,10.43
2022-08-27T15:37:52.344Z,10.15
2022-08-27T15:43:02.149Z,9.85
2022-08-27T15:48:04.922Z,9.55
2022-08-27T15:53:08.841Z,9.30
2022-08-27T15:58:11.517Z,10.70
2022-08-27T16:03:14.866Z,9.98
2022-08-27T16:08:17.657Z,10.43
2022-08-27T16:13:20.055Z,9.48
2022-08-27T16:18:26.950Z,9.07
2022-08-27T16:23:30.501Z,9.43
2022-08-27T16:28:32.798Z,9.07
2022-08-27T16:33:35.186Z,10.32
2022-08-27T16:38:42.069Z,11.25
2022-08-27T16:43:44.899Z,10.73
2022-08-27T16:49:05.636Z,10.57
2022-08-27T16:54:10.769Z,9.75
2022-08-27T16:59:13.199Z,10.68
2022-08-27T17:04:23.954Z,10.88
2022-08-27T17:09:31.848Z,10.68
2022-08-27T17:14:37.930Z,9.75
2022-08-27T17:19:40.332Z,11.23
2022-08-27T17:24:42.695Z,9.73
2022-08-27T17:29:44.938Z,9.65
2022-08-27T17:34:47.267Z,10.38
2022-08-27T17:39:49.572Z,9.80
2022-08-27T17:44:52.385Z,9.30
2022-08-27T17:49:54.746Z,10.00
2022-08-27T17:54:57.125Z,9.50
2022-08-27T18:00:04.610Z,9.40
2022-08-27T18:05:13.336Z,8.32
2022-08-27T18:10:20.203Z,8.32
2022-08-27T18:15:28.502Z,7.65
2022-08-27T18:20:32.341Z,6.80
2022-08-27T18:25:37.982Z,6.00
2022-08-27T18:30:43.748Z,5.35
2022-08-27T18:35:46.215Z,5.28
2022-08-27T18:40:50.145Z,5.00
2022-08-27T18:45:54.338Z,4.90
2022-08-27T18:50:58.837Z,4.65
2022-08-27T18:56:02.203Z,4.82
2022-08-27T19:01:11.154Z,4.50
2022-08-27T19:06:16.138Z,3.80
2022-08-27T19:11:18.855Z,3.90
2022-08-27T19:16:43.353Z,3.70
2022-08-27T19:21:50.701Z,3.55
2022-08-27T19:26:54.030Z,3.00
2022-08-27T19:31:56.423Z,2.80
2022-08-27T19:37:00.622Z,3.30
2022-08-27T19:42:04.516Z,2.75
2022-08-27T19:47:09.779Z,3.20
2022-08-27T19:52:12.896Z,2.90
2022-08-27T19:57:15.322Z,2.92
2022-08-27T20:02:17.553Z,2.80
2022-08-27T20:07:21.821Z,2.85
2022-08-27T20:12:24.316Z,3.58
2022-08-27T20:17:26.705Z,3.17
2022-08-27T20:22:31.622Z,2.75
2022-08-27T20:27:34.531Z,3.03
2022-08-27T20:32:36.944Z,3.38
2022-08-27T20:37:42.266Z,3.00
2022-08-27T20:42:44.964Z,3.58
2022-08-27T20:47:48.760Z,3.33
2022-08-27T20:52:52.144Z,3.70
2022-08-27T20:58:13.289Z,3.03
2022-08-27T21:03:15.719Z,3.47
2022-08-27T21:08:19.680Z,3.53
2022-08-27T21:13:22.176Z,3.50
2022-08-27T21:18:29.254Z,3.50
2022-08-27T21:23:34.054Z,4.10
2022-08-27T21:28:41.620Z,4.45
2022-08-27T21:33:43.926Z,4.40
2022-08-27T21:38:46.280Z,4.03
2022-08-27T21:43:49.252Z,4.22
2022-08-27T21:48:58.806Z,4.20
2022-08-27T21:54:01.681Z,4.90
2022-08-27T21:59:04.087Z,5.03
